createdAt,value
2022-11-06T00:00:39.219Z,1.53
2022-11-06T00:03:08.137Z,0.80
2022-11-06T00:05:53.817Z,0.30
2022-11-06T00:08:30.334Z,0.27
2022-11-06T00:10:58.663Z,0.20
2022-11-06T00:13:28.524Z,0.30
2022-11-06T00:15:56.801Z,0.40
2022-11-06T00:18:28.723Z,0.37
2022-11-06T00:20:57.079Z,0.33
2022-11-06T00:23:25.463Z,0.40
2022-11-06T00:25:56.813Z,0.93
2022-11-06T00:28:25.114Z,0.47
2022-11-06T00:31:02.718Z,0.40
2022-11-06T00:33:31.061Z,0.30
2022-11-06T00:35:59.344Z,0.63
2022-11-06T00:38:27.523Z,0.33
2022-11-06T00:40:55.825Z,0.30
2022-11-06T00:43:24.135Z,0.50
2022-11-06T00:45:52.523Z,1.27
2022-11-06T00:48:22.131Z,0.30
2022-11-06T00:50:50.368Z,0.60
2022-11-06T00:53:18.640Z,0.77
2022-11-06T00:55:46.959Z,0.30
2022-11-06T00:58:15.471Z,0.40
2022-11-06T01:00:43.995Z,0.87
2022-11-06T01:03:12.318Z,0.40
2022-11-06T01:05:42.227Z,0.30
2022-11-06T01:08:10.761Z,0.40
2022-11-06T01:10:39.476Z,0.60
2022-11-06T01:13:07.742Z,0.30
2022-11-06T01:15:37.789Z,0.97
2022-11-06T01:18:06.263Z,1.23
2022-11-06T01:20:34.516Z,0.40
2022-11-06T01:23:04.226Z,0.40
2022-11-06T01:25:32.558Z,0.30
2022-11-06T01:28:00.805Z,0.20
2022-11-06T01:30:29.042Z,0.40
2022-11-06T01:32:57.280Z,0.33
2022-11-06T01:35:25.480Z,0.43
2022-11-06T01:37:53.686Z,0.30
2022-11-06T01:40:23.362Z,0.30
2022-11-06T01:42:51.557Z,0.30
2022-11-06T01:45:32.744Z,0.50
2022-11-06T01:48:01.733Z,0.67
2022-11-06T01:50:30.100Z,0.20
2022-11-06T01:53:00.974Z,1.63
2022-11-06T01:55:36.299Z,0.40
2022-11-06T01:58:07.648Z,0.87
2022-11-06T02:00:36.134Z,0.30
2022-11-06T02:03:05.325Z,0.80
2022-11-06T02:05:33.674Z,0.57
2022-11-06T02:08:02.647Z,1.17
2022-11-06T02:10:33.221Z,0.30
2022-11-06T02:13:17.899Z,0.30
2022-11-06T02:15:51.757Z,0.30
2022-11-06T02:18:48.893Z,0.27
2022-11-06T02:21:32.400Z,0.20
2022-11-06T02:24:20.562Z,0.43
2022-11-06T02:27:01.575Z,0.30
2022-11-06T02:29:36.020Z,0.50
2022-11-06T02:32:09.811Z,0.30
2022-11-06T02:34:40.041Z,0.43
2022-11-06T02:37:13.834Z,1.03
2022-11-06T02:39:45.875Z,0.30
2022-11-06T02:42:19.939Z,0.30
2022-11-06T02:44:51.871Z,0.40
2022-11-06T02:47:22.965Z,0.30
2022-11-06T02:49:55.878Z,0.20
2022-11-06T02:52:29.412Z,0.30
2022-11-06T02:55:05.844Z,0.20
2022-11-06T02:57:39.503Z,0.20
2022-11-06T03:00:11.234Z,0.20
2022-11-06T03:02:45.419Z,0.40
2022-11-06T03:05:18.295Z,0.77
2022-11-06T03:07:51.890Z,2.00
2022-11-06T03:10:20.799Z,0.30
2022-11-06T03:12:58.248Z,0.30
2022-11-06T03:15:34.386Z,0.30
2022-11-06T03:18:11.774Z,0.20
2022-11-06T03:20:45.820Z,0.30
2022-11-06T03:23:19.843Z,0.30
2022-11-06T03:25:52.126Z,0.30
2022-11-06T03:28:29.798Z,0.37
2022-11-06T03:31:03.539Z,0.30
2022-11-06T03:33:37.544Z,0.20
2022-11-06T03:36:11.831Z,0.63
2022-11-06T03:38:44.559Z,0.30
2022-11-06T03:41:18.433Z,0.40
2022-11-06T03:43:51.184Z,1.33
2022-11-06T03:46:25.222Z,0.50
2022-11-06T03:48:56.983Z,0.53
2022-11-06T03:51:31.855Z,0.30
2022-11-06T03:54:03.979Z,0.40
2022-11-06T03:56:38.462Z,0.60
2022-11-06T03:59:10.239Z,0.50
2022-11-06T04:01:44.494Z,0.40
2022-11-06T04:04:18.979Z,0.37
2022-11-06T04:06:52.982Z,0.70
2022-11-06T04:09:40.860Z,0.40
2022-11-06T04:12:27.802Z,0.30
2022-11-06T04:14:59.165Z,0.30
2022-11-06T04:17:30.130Z,0.40
2022-11-06T04:20:02.267Z,0.30
2022-11-06T04:22:44.672Z,0.30
2022-11-06T04:25:43.260Z,0.30
2022-11-06T04:28:24.474Z,0.20
2022-11-06T04:31:06.412Z,0.87
2022-11-06T04:33:44.436Z,0.80
2022-11-06T04:36:23.040Z,0.57
2022-11-06T04:39:02.329Z,0.60
2022-11-06T04:41:39.623Z,0.90
2022-11-06T04:44:14.835Z,0.40
2022-11-06T04:46:48.557Z,0.30
2022-11-06T04:49:17.708Z,0.40
2022-11-06T04:51:48.002Z,0.40
2022-11-06T04:54:17.127Z,0.30
2022-11-06T04:56:46.581Z,0.30
2022-11-06T04:59:17.833Z,0.40
2022-11-06T05:01:47.945Z,0.70
2022-11-06T05:04:16.346Z,0.30
2022-11-06T05:06:44.596Z,0.30
2022-11-06T05:09:12.888Z,0.40
2022-11-06T05:11:41.174Z,0.30
2022-11-06T05:14:09.426Z,0.90
2022-11-06T05:16:37.701Z,0.30
2022-11-06T05:19:07.490Z,0.33
2022-11-06T05:21:53.281Z,0.30
2022-11-06T05:24:21.556Z,0.67
2022-11-06T05:26:52.322Z,0.40
2022-11-06T05:29:24.474Z,0.70
2022-11-06T05:31:52.683Z,0.50
2022-11-06T05:34:22.770Z,0.60
2022-11-06T05:36:51.007Z,0.30
2022-11-06T05:39:19.296Z,0.30
2022-11-06T05:41:47.575Z,0.83
2022-11-06T05:44:15.845Z,0.70
2022-11-06T05:46:49.161Z,1.13
2022-11-06T05:49:18.653Z,0.40
2022-11-06T05:51:48.923Z,0.40
2022-11-06T05:54:17.429Z,0.40
2022-11-06T05:56:45.624Z,0.40
2022-11-06T05:59:14.007Z,0.90
2022-11-06T06:01:42.511Z,0.60
2022-11-06T06:04:10.940Z,0.80
2022-11-06T06:06:40.039Z,1.10
2022-11-06T06:09:09.768Z,1.70
2022-11-06T06:11:38.115Z,1.30
2022-11-06T06:14:06.326Z,0.80
2022-11-06T06:16:34.777Z,0.33
2022-11-06T06:19:03.232Z,0.67
2022-11-06T06:21:31.645Z,0.20
2022-11-06T06:23:59.862Z,0.20
2022-11-06T06:26:29.451Z,0.40
2022-11-06T06:28:57.821Z,0.70
2022-11-06T06:31:26.386Z,0.30
2022-11-06T06:33:54.636Z,0.20
2022-11-06T06:36:22.931Z,0.60
2022-11-06T06:38:51.217Z,0.57
2022-11-06T06:41:19.551Z,0.60
2022-11-06T06:43:50.963Z,0.70
2022-11-06T06:46:19.308Z,1.43
2022-11-06T06:48:48.174Z,0.60
2022-11-06T06:51:21.061Z,1.40
2022-11-06T06:53:51.903Z,2.13
2022-11-06T06:56:20.211Z,0.63
2022-11-06T06:58:48.566Z,0.73
2022-11-06T07:01:18.687Z,0.30
2022-11-06T07:03:47.183Z,0.70
2022-11-06T07:06:15.746Z,0.70
2022-11-06T07:08:44.016Z,1.27
2022-11-06T07:11:13.046Z,0.70
2022-11-06T07:13:44.476Z,0.57
2022-11-06T07:16:13.035Z,0.53
2022-11-06T07:18:42.783Z,0.47
2022-11-06T07:21:13.433Z,0.30
2022-11-06T07:23:41.964Z,0.73
2022-11-06T07:26:10.297Z,0.60
2022-11-06T07:28:38.555Z,0.40
2022-11-06T07:31:08.711Z,0.30
2022-11-06T07:33:37.442Z,0.40
2022-11-06T07:36:09.744Z,0.30
2022-11-06T07:38:39.711Z,0.40
2022-11-06T07:41:09.698Z,0.40
2022-11-06T07:43:38.468Z,0.57
2022-11-06T07:46:10.379Z,0.60
2022-11-06T07:48:39.662Z,0.50
2022-11-06T07:51:11.476Z,0.40
2022-11-06T07:53:40.114Z,0.40
2022-11-06T07:56:09.903Z,1.00
2022-11-06T07:58:38.771Z,0.77
2022-11-06T08:01:07.665Z,0.97
2022-11-06T08:03:35.934Z,0.70
2022-11-06T08:06:05.386Z,0.40
2022-11-06T08:08:35.318Z,0.40
2022-11-06T08:11:04.256Z,0.50
2022-11-06T08:13:34.025Z,0.40
2022-11-06T08:16:05.380Z,0.60
2022-11-06T08:18:33.885Z,0.50
2022-11-06T08:21:02.600Z,0.43
2022-11-06T08:23:31.035Z,0.40
2022-11-06T08:26:02.815Z,0.50
2022-11-06T08:28:31.308Z,0.40
2022-11-06T08:30:59.566Z,0.53
2022-11-06T08:33:28.026Z,0.30
2022-11-06T08:35:56.282Z,0.50
2022-11-06T08:38:24.603Z,1.40
2022-11-06T08:40:53.977Z,0.40
2022-11-06T08:43:26.695Z,0.80
2022-11-06T08:45:55.091Z,0.30
2022-11-06T08:48:23.340Z,0.30
2022-11-06T08:50:51.524Z,0.40
2022-11-06T08:53:19.868Z,0.20
2022-11-06T08:55:48.479Z,0.40
2022-11-06T08:58:16.763Z,0.67
2022-11-06T09:00:46.477Z,0.40
2022-11-06T09:03:18.128Z,0.50
2022-11-06T09:05:47.348Z,0.30
2022-11-06T09:08:16.228Z,0.30
2022-11-06T09:10:45.314Z,0.30
2022-11-06T09:13:14.633Z,0.50
2022-11-06T09:15:43.109Z,0.30
2022-11-06T09:18:13.354Z,0.30
2022-11-06T09:20:41.816Z,0.30
2022-11-06T09:23:11.466Z,0.40
2022-11-06T09:25:39.912Z,0.30
2022-11-06T09:28:08.098Z,0.30
2022-11-06T09:30:36.554Z,0.30
2022-11-06T09:33:07.984Z,0.40
2022-11-06T09:35:42.202Z,0.30
2022-11-06T09:38:13.374Z,0.30
2022-11-06T09:40:48.023Z,0.20
2022-11-06T09:46:26.045Z,0.30
2022-11-06T09:48:59.676Z,0.40
2022-11-06T09:51:46.952Z,0.20
2022-11-06T09:54:21.530Z,0.30
2022-11-06T09:56:54.887Z,0.80
2022-11-06T09:59:23.785Z,0.23
2022-11-06T10:01:56.454Z,0.30
2022-11-06T10:04:41.422Z,0.30
2022-11-06T10:07:25.185Z,0.40
2022-11-06T10:09:54.086Z,0.30
2022-11-06T10:12:34.059Z,0.30
2022-11-06T10:15:09.657Z,0.30
2022-11-06T10:17:52.102Z,0.30
2022-11-06T10:20:26.911Z,0.40
2022-11-06T10:23:06.198Z,0.50
2022-11-06T10:25:55.118Z,0.83
2022-11-06T10:28:43.941Z,0.60
2022-11-06T10:31:20.354Z,1.33
2022-11-06T10:33:57.137Z,0.77
2022-11-06T10:36:31.214Z,0.40
2022-11-06T10:39:02.703Z,0.80
2022-11-06T10:41:35.244Z,0.50
2022-11-06T10:44:07.451Z,1.10
2022-11-06T10:46:39.525Z,0.60
2022-11-06T10:49:17.346Z,0.70
2022-11-06T10:52:03.386Z,0.50
2022-11-06T10:54:43.511Z,0.93
2022-11-06T10:57:30.047Z,0.80
2022-11-06T10:59:58.274Z,0.77
2022-11-06T11:02:30.522Z,1.67
2022-11-06T11:04:58.986Z,0.50
2022-11-06T11:07:31.044Z,0.40
2022-11-06T11:10:02.629Z,1.23
2022-11-06T11:12:32.994Z,0.70
2022-11-06T11:15:13.626Z,0.77
2022-11-06T11:17:42.809Z,0.30
2022-11-06T11:20:32.887Z,1.03
2022-11-06T11:23:07.626Z,0.30
2022-11-06T11:25:37.429Z,0.30
2022-11-06T11:28:06.325Z,0.33
2022-11-06T11:30:34.670Z,0.30
2022-11-06T11:33:14.257Z,0.40
2022-11-06T11:35:49.180Z,0.30
2022-11-06T11:38:19.065Z,0.43
2022-11-06T11:40:49.003Z,0.60
2022-11-06T11:43:23.906Z,0.40
2022-11-06T11:46:18.717Z,1.17
2022-11-06T11:48:48.781Z,0.70
2022-11-06T11:51:29.744Z,0.30
2022-11-06T11:54:02.248Z,0.50
2022-11-06T11:57:02.359Z,0.50
2022-11-06T11:59:23.632Z,0.73
2022-11-06T12:01:52.404Z,0.27
2022-11-06T12:04:25.577Z,0.60
2022-11-06T12:07:02.165Z,0.50
2022-11-06T12:09:34.096Z,0.30
2022-11-06T12:12:03.936Z,0.30
2022-11-06T12:14:35.965Z,0.30
2022-11-06T12:17:15.151Z,0.37
2022-11-06T12:19:49.595Z,0.30
2022-11-06T12:22:24.446Z,0.20
2022-11-06T12:24:56.569Z,0.40
2022-11-06T12:27:30.038Z,0.30
2022-11-06T12:30:05.045Z,0.30
2022-11-06T12:32:49.178Z,0.20
2022-11-06T12:35:25.474Z,0.30
2022-11-06T12:38:03.172Z,0.30
2022-11-06T12:40:33.330Z,0.57
2022-11-06T12:43:12.831Z,0.37
2022-11-06T12:45:53.648Z,0.30
2022-11-06T12:48:38.347Z,0.30
2022-11-06T12:51:13.257Z,0.40
2022-11-06T12:53:55.493Z,0.30
2022-11-06T12:56:30.190Z,0.47
2022-11-06T12:59:22.715Z,0.80
2022-11-06T13:02:02.326Z,0.90
2022-11-06T13:04:42.071Z,1.67
2022-11-06T13:07:33.948Z,1.10
2022-11-06T13:10:19.004Z,1.87
2022-11-06T13:12:58.149Z,0.40
2022-11-06T13:15:34.024Z,0.57
2022-11-06T13:18:10.210Z,0.57
2022-11-06T13:20:47.061Z,0.70
2022-11-06T13:23:20.678Z,0.80
2022-11-06T13:25:55.048Z,0.50
2022-11-06T13:28:29.571Z,0.87
2022-11-06T13:31:00.733Z,0.47
2022-11-06T13:33:33.315Z,0.50
2022-11-06T13:36:02.625Z,0.40
2022-11-06T13:38:36.718Z,0.30
2022-11-06T13:41:13.989Z,0.37
2022-11-06T13:43:47.174Z,0.27
2022-11-06T13:46:27.235Z,0.30
2022-11-06T13:49:05.761Z,0.30
2022-11-06T13:51:43.418Z,0.40
2022-11-06T13:54:23.022Z,0.30
2022-11-06T13:57:22.246Z,0.57
2022-11-06T14:00:19.307Z,0.30
2022-11-06T14:03:23.690Z,0.30
2022-11-06T14:05:54.894Z,0.20
2022-11-06T14:08:28.950Z,0.30
2022-11-06T14:11:01.142Z,0.30
2022-11-06T14:13:32.844Z,0.30
2022-11-06T14:16:04.424Z,0.70
2022-11-06T14:18:35.137Z,0.50
2022-11-06T14:21:29.514Z,0.43
2022-11-06T14:24:06.914Z,0.60
2022-11-06T14:26:41.388Z,0.60
2022-11-06T14:29:56.332Z,0.40
2022-11-06T14:32:49.924Z,1.13
2022-11-06T14:35:53.411Z,0.30
2022-11-06T14:38:38.399Z,1.03
2022-11-06T14:41:51.653Z,0.43
2022-11-06T14:44:44.778Z,0.77
2022-11-06T14:47:37.990Z,0.30
2022-11-06T14:50:11.120Z,0.40
2022-11-06T14:52:47.231Z,0.50
2022-11-06T14:55:29.049Z,0.47
2022-11-06T14:58:01.643Z,0.20
2022-11-06T15:00:46.032Z,0.30
2022-11-06T15:03:31.839Z,0.30
2022-11-06T15:06:06.478Z,0.63
2022-11-06T15:09:01.289Z,0.73
2022-11-06T15:12:01.093Z,1.13
2022-11-06T15:14:58.085Z,2.70
2022-11-06T15:17:29.498Z,3.00
2022-11-06T15:20:28.624Z,2.73
2022-11-06T15:23:09.117Z,2.27
2022-11-06T15:25:46.965Z,1.43
2022-11-06T15:28:19.810Z,0.83
2022-11-06T15:30:51.883Z,2.83
2022-11-06T15:33:29.390Z,4.73
2022-11-06T15:36:03.858Z,2.73
2022-11-06T15:38:39.551Z,4.63
2022-11-06T15:41:14.551Z,1.90
2022-11-06T15:43:46.324Z,3.17
2022-11-06T15:46:21.838Z,1.37
2022-11-06T15:49:07.312Z,3.10
2022-11-06T15:51:39.758Z,2.10
2022-11-06T15:54:08.083Z,1.63
2022-11-06T15:56:37.854Z,0.90
2022-11-06T15:59:12.599Z,2.17
2022-11-06T16:01:41.592Z,2.70
2022-11-06T16:04:16.615Z,2.87
2022-11-06T16:06:47.711Z,7.50
2022-11-06T16:09:19.905Z,5.50
2022-11-06T16:11:52.401Z,3.60
2022-11-06T16:14:21.559Z,2.40
2022-11-06T16:16:51.741Z,1.83
2022-11-06T16:19:32.209Z,1.83
2022-11-06T16:22:04.503Z,2.40
2022-11-06T16:24:41.287Z,1.77
2022-11-06T16:27:12.555Z,0.70
2022-11-06T16:29:41.470Z,1.17
2022-11-06T16:32:16.555Z,1.27
2022-11-06T16:34:46.609Z,1.00
2022-11-06T16:37:37.758Z,1.30
2022-11-06T16:40:34.379Z,0.70
2022-11-06T16:43:04.652Z,0.80
2022-11-06T16:45:33.062Z,0.70
2022-11-06T16:48:34.362Z,0.70
2022-11-06T16:51:05.236Z,1.80
2022-11-06T16:53:48.896Z,2.27
2022-11-06T16:56:17.257Z,0.97
2022-11-06T16:58:52.299Z,1.00
2022-11-06T17:01:21.232Z,1.23
2022-11-06T17:03:56.930Z,1.20
2022-11-06T17:06:28.224Z,1.50
2022-11-06T17:09:08.787Z,1.10
2022-11-06T17:11:38.943Z,0.70
2022-11-06T17:14:19.997Z,0.50
2022-11-06T17:16:50.807Z,1.57
2022-11-06T17:19:19.491Z,3.60
2022-11-06T17:21:48.288Z,3.07
2022-11-06T17:24:36.621Z,1.10
2022-11-06T17:27:05.074Z,1.50
2022-11-06T17:29:38.943Z,0.70
2022-11-06T17:32:08.132Z,0.80
2022-11-06T17:34:40.195Z,0.70
2022-11-06T17:37:11.927Z,0.60
2022-11-06T17:39:40.223Z,0.90
2022-11-06T17:42:12.025Z,0.67
2022-11-06T17:44:41.656Z,0.90
2022-11-06T17:47:10.116Z,0.77
2022-11-06T17:49:38.382Z,1.57
2022-11-06T17:52:06.989Z,2.63
2022-11-06T17:54:37.402Z,2.77
2022-11-06T17:57:08.384Z,1.90
2022-11-06T17:59:36.773Z,1.87
2022-11-06T18:02:07.706Z,1.47
2022-11-06T18:04:36.076Z,1.53
2022-11-06T18:07:04.386Z,1.43
2022-11-06T18:09:33.067Z,1.67
2022-11-06T18:12:01.355Z,3.07
2022-11-06T18:14:29.842Z,1.00
2022-11-06T18:16:58.144Z,1.60
2022-11-06T18:19:28.748Z,1.20
2022-11-06T18:21:59.043Z,1.57
2022-11-06T18:24:31.667Z,1.73
2022-11-06T18:27:00.498Z,1.17
2022-11-06T18:29:28.810Z,1.57
2022-11-06T18:31:57.043Z,1.87
2022-11-06T18:34:25.293Z,0.90
2022-11-06T18:36:54.907Z,2.53
2022-11-06T18:39:23.160Z,1.70
2022-11-06T18:41:51.421Z,3.67
2022-11-06T18:44:19.706Z,1.50
2022-11-06T18:46:48.327Z,1.57
2022-11-06T18:49:16.846Z,1.17
2022-11-06T18:51:45.142Z,1.30
2022-11-06T18:54:14.881Z,0.77
2022-11-06T18:56:43.399Z,0.83
2022-11-06T18:59:15.847Z,0.50
2022-11-06T19:01:44.220Z,0.87
2022-11-06T19:04:12.880Z,1.23
2022-11-06T19:06:41.415Z,0.80
2022-11-06T19:09:10.281Z,0.70
2022-11-06T19:11:40.456Z,0.60
2022-11-06T19:14:08.784Z,0.87
2022-11-06T19:16:37.115Z,0.60
2022-11-06T19:19:06.899Z,0.67
2022-11-06T19:21:35.856Z,0.50
2022-11-06T19:24:05.857Z,1.13
2022-11-06T19:26:35.595Z,0.67
2022-11-06T19:29:07.483Z,0.73
2022-11-06T19:31:37.328Z,0.60
2022-11-06T19:34:07.066Z,1.13
2022-11-06T19:36:35.994Z,1.90
2022-11-06T19:39:04.621Z,0.60
2022-11-06T19:41:32.997Z,0.50
2022-11-06T19:44:01.308Z,0.40
2022-11-06T19:46:35.540Z,1.97
2022-11-06T19:49:04.318Z,0.70
2022-11-06T19:51:33.569Z,1.03
2022-11-06T19:54:02.680Z,0.60
2022-11-06T19:56:31.034Z,1.10
2022-11-06T19:58:59.508Z,1.73
2022-11-06T20:01:28.039Z,0.63
2022-11-06T20:03:57.814Z,1.10
2022-11-06T20:06:27.575Z,1.37
2022-11-06T20:08:55.863Z,0.97
2022-11-06T20:11:24.315Z,0.53
2022-11-06T20:13:52.784Z,0.90
2022-11-06T20:16:22.089Z,1.40
2022-11-06T20:18:54.129Z,2.13
2022-11-06T20:21:26.348Z,0.90
2022-11-06T20:23:54.691Z,0.70
2022-11-06T20:26:23.191Z,0.50
2022-11-06T20:28:51.753Z,0.30
2022-11-06T20:31:21.816Z,0.83
2022-11-06T20:33:53.179Z,0.70
2022-11-06T20:36:24.673Z,0.60
2022-11-06T20:38:54.704Z,1.10
2022-11-06T20:41:23.540Z,0.73
2022-11-06T20:43:52.941Z,0.30
2022-11-06T20:46:22.704Z,0.67
2022-11-06T20:48:51.321Z,0.37
2022-11-06T20:51:21.354Z,0.30
2022-11-06T20:53:51.511Z,0.50
2022-11-06T20:56:23.036Z,0.97
2022-11-06T20:58:51.274Z,0.60
2022-11-06T21:01:21.718Z,0.70
2022-11-06T21:03:51.235Z,1.90
2022-11-06T21:06:20.918Z,1.30
2022-11-06T21:08:50.613Z,0.97
2022-11-06T21:11:21.052Z,0.30
2022-11-06T21:13:51.859Z,0.73
2022-11-06T21:16:23.170Z,1.67
2022-11-06T21:18:51.875Z,0.90
2022-11-06T21:21:21.749Z,0.50
2022-11-06T21:23:53.007Z,0.53
2022-11-06T21:26:24.898Z,0.50
2022-11-06T21:28:53.839Z,0.40
2022-11-06T21:31:24.469Z,0.53
2022-11-06T21:33:57.019Z,0.53
2022-11-06T21:36:26.829Z,0.70
2022-11-06T21:38:59.072Z,0.80
2022-11-06T21:41:29.623Z,0.90
2022-11-06T21:43:58.531Z,1.27
2022-11-06T21:46:26.759Z,0.80
2022-11-06T21:48:55.532Z,0.60
2022-11-06T21:51:26.904Z,0.80
2022-11-06T21:54:14.601Z,0.87
2022-11-06T21:56:44.551Z,1.20
2022-11-06T21:59:15.804Z,1.00
2022-11-06T22:01:44.785Z,0.63
2022-11-06T22:04:13.854Z,0.50
2022-11-06T22:06:43.531Z,1.53
2022-11-06T22:09:14.720Z,0.70
2022-11-06T22:11:44.470Z,1.07
2022-11-06T22:14:15.221Z,0.70
2022-11-06T22:16:45.468Z,0.70
2022-11-06T22:19:14.294Z,0.40
2022-11-06T22:21:42.651Z,0.57
2022-11-06T22:24:14.102Z,1.27
2022-11-06T22:26:42.615Z,0.40
2022-11-06T22:29:13.806Z,0.70
2022-11-06T22:31:42.380Z,0.40
2022-11-06T22:34:11.597Z,0.40
2022-11-06T22:36:39.836Z,0.57
2022-11-06T22:39:09.631Z,1.00
2022-11-06T22:41:39.801Z,0.53
2022-11-06T22:44:08.681Z,0.63
2022-11-06T22:46:37.357Z,0.53
2022-11-06T22:49:06.499Z,0.63
2022-11-06T22:51:35.059Z,0.40
2022-11-06T22:54:03.903Z,0.40
2022-11-06T22:56:33.107Z,0.30
2022-11-06T22:59:07.836Z,0.50
2022-11-06T23:01:41.896Z,2.20
2022-11-06T23:04:15.352Z,0.40
2022-11-06T23:06:45.082Z,0.60
2022-11-06T23:09:14.342Z,0.50
2022-11-06T23:11:46.251Z,0.30
2022-11-06T23:14:19.406Z,0.30
2022-11-06T23:17:01.223Z,0.40
2022-11-06T23:19:32.643Z,0.73
2022-11-06T23:22:21.565Z,0.30
2022-11-06T23:24:49.814Z,0.60
2022-11-06T23:27:18.459Z,2.20
2022-11-06T23:29:48.136Z,2.10
2022-11-06T23:32:16.448Z,0.50
2022-11-06T23:34:44.752Z,0.50
2022-11-06T23:37:13.091Z,0.60
2022-11-06T23:39:41.403Z,0.80
2022-11-06T23:42:12.232Z,1.03
2022-11-06T23:44:54.266Z,0.40
2022-11-06T23:47:24.076Z,0.40
2022-11-06T23:49:52.313Z,0.47
2022-11-06T23:52:20.857Z,0.30
2022-11-06T23:54:49.154Z,0.50
2022-11-06T23:57:17.894Z,0.60
2022-11-06T23:59:46.417Z,0.33
